Terminal Aerodrome Forecast
Issued by NWS Louisville, KY

Home | Current Version | Previous Version | Text Only | Print | Product List | Glossary On
Versions: 1 2 3 4 5 6 7 8 9 10 11 12 13
000
FTUS43 KLMK 282320
TAFLEX
TAF
KLEX 282320Z 2900/2924 19005KT P6SM SCT250
     FM290900 19006KT P6SM FEW200 WS020/21035KT
     FM291100 19007KT P6SM FEW070 FEW200
     FM291700 21008G20KT P6SM FEW045 SCT100=

USA.gov is the U.S. government's official web portal to all federal, state and local government web resources and services.